Time;durP1;ratioP1;P1;durP2;ratioP2;P2;SDS_P1;SDS_P2;PMS_P1;PMS_P2;Temp;Humidity;BMP_temperature;BMP_pressure;BME280_temperature;BME280_humidity;BME280_pressure;Samples;Min_cycle;Max_cycle;Signal;HPM_P1;HPM_P2
2022/08/23 00:02:14;;;;;;;10.77;6.18;;;;;;;;;;6125599;23;20336;-71
2022/08/23 00:04:50;;;;;;;15.93;6.57;;;;;;;;;;6125372;23;20018;-71
2022/08/23 00:07:40;;;;;;;14.70;6.50;;;;;;;;;;6124193;23;20045;-71
2022/08/23 00:10:08;;;;;;;12.23;6.85;;;;;;;;;;6125494;23;20134;-71
2022/08/23 00:12:36;;;;;;;17.35;8.18;;;;;;;;;;6125401;23;20018;-71
2022/08/23 00:15:04;;;;;;;11.02;6.75;;;;;;;;;;6125467;23;20014;-71
2022/08/23 00:17:33;;;;;;;13.43;6.78;;;;;;;;;;6125573;23;20025;-71
2022/08/23 00:20:06;;;;;;;13.70;6.57;;;;;;;;;;6127091;23;20041;-71
2022/08/23 00:22:34;;;;;;;9.73;6.60;;;;;;;;;;6127115;23;20022;-72
2022/08/23 00:25:03;;;;;;;11.57;7.05;;;;;;;;;;6127137;23;20018;-71
2022/08/23 00:27:30;;;;;;;14.95;7.57;;;;;;;;;;6127421;23;20028;-72
2022/08/23 00:29:58;;;;;;;15.90;8.23;;;;;;;;;;6125848;23;20036;-72
2022/08/23 00:32:30;;;;;;;16.55;7.68;;;;;;;;;;6127013;23;20348;-71
2022/08/23 00:34:59;;;;;;;13.10;7.75;;;;;;;;;;6125608;23;20018;-72
2022/08/23 00:37:28;;;;;;;15.63;7.70;;;;;;;;;;6127204;23;20320;-71
2022/08/23 00:39:55;;;;;;;13.23;8.00;;;;;;;;;;6125670;23;20017;-72
2022/08/23 00:47:56;;;;;;;13.15;8.95;;;;;;;;;;6125528;23;20076;-71
2022/08/23 00:50:27;;;;;;;13.80;7.35;;;;;;;;;;6149943;23;20026;-72
2022/08/23 00:53:11;;;;;;;13.23;7.53;;;;;;;;;;6125395;23;20022;-71
2022/08/23 00:55:40;;;;;;;14.77;8.18;;;;;;;;;;6127031;23;20093;-71
2022/08/23 00:58:08;;;;;;;19.15;8.32;;;;;;;;;;6125477;23;20026;-72
2022/08/23 01:00:36;;;;;;;15.10;7.28;;;;;;;;;;6127115;23;20020;-72
2022/08/23 01:03:07;;;;;;;16.27;7.63;;;;;;;;;;6125634;23;20021;-72
2022/08/23 01:05:40;;;;;;;13.57;7.95;;;;;;;;;;6126982;23;20448;-72
2022/08/23 01:08:08;;;;;;;16.47;9.23;;;;;;;;;;6125447;23;20026;-72
2022/08/23 01:10:39;;;;;;;12.90;7.63;;;;;;;;;;6126944;23;20041;-72
2022/08/23 01:13:20;;;;;;;12.75;7.93;;;;;;;;;;6126908;23;20018;-72
2022/08/23 01:16:09;;;;;;;38.83;25.50;;;;;;;;;;6125302;23;20052;-72
2022/08/23 01:18:37;;;;;;;49.70;33.47;;;;;;;;;;6125355;23;20461;-72
2022/08/23 01:21:14;;;;;;;14.40;8.50;;;;;;;;;;6125340;23;20032;-72
2022/08/23 01:23:47;;;;;;;15.18;9.00;;;;;;;;;;6125350;23;20022;-72
2022/08/23 01:26:17;;;;;;;20.55;12.85;;;;;;;;;;6125226;23;20262;-72
2022/08/23 01:28:50;;;;;;;17.05;8.52;;;;;;;;;;6125231;23;20026;-73
2022/08/23 01:31:18;;;;;;;16.25;9.63;;;;;;;;;;6124740;23;20112;-73
2022/08/23 01:33:49;;;;;;;17.45;9.20;;;;;;;;;;6125072;23;20113;-73
2022/08/23 01:36:19;;;;;;;16.45;9.00;;;;;;;;;;6125045;23;20018;-73
2022/08/23 01:38:49;;;;;;;20.80;12.00;;;;;;;;;;6125149;23;20021;-73
2022/08/23 01:41:16;;;;;;;14.98;9.15;;;;;;;;;;6124962;23;20511;-73
2022/08/23 01:43:45;;;;;;;18.38;10.80;;;;;;;;;;6126636;23;20118;-73
2022/08/23 01:46:19;;;;;;;18.38;9.10;;;;;;;;;;6124966;23;20033;-73
2022/08/23 01:48:47;;;;;;;18.17;12.20;;;;;;;;;;6124910;23;20022;-73
2022/08/23 01:51:17;;;;;;;24.35;10.60;;;;;;;;;;6124719;23;20061;-73
2022/08/23 01:53:45;;;;;;;17.92;8.88;;;;;;;;;;6149386;23;20031;-73
2022/08/23 01:56:14;;;;;;;15.88;9.48;;;;;;;;;;6124834;23;20351;-73
2022/08/23 01:58:42;;;;;;;13.32;9.07;;;;;;;;;;6124885;23;20042;-73
2022/08/23 02:01:11;;;;;;;16.08;8.90;;;;;;;;;;6124755;23;20037;-73
2022/08/23 02:03:38;;;;;;;19.10;12.15;;;;;;;;;;6149443;23;20074;-73
2022/08/23 02:06:07;;;;;;;20.48;9.57;;;;;;;;;;6126316;23;20045;-73
2022/08/23 02:11:24;;;;;;;15.15;9.35;;;;;;;;;;6124789;23;20412;-73
2022/08/23 02:13:53;;;;;;;16.55;11.13;;;;;;;;;;6124597;23;20073;-73
2022/08/23 02:16:35;;;;;;;15.00;8.90;;;;;;;;;;6124768;23;20025;-75
2022/08/23 02:19:05;;;;;;;17.40;10.15;;;;;;;;;;6124700;23;20018;-74
2022/08/23 02:21:33;;;;;;;17.92;10.55;;;;;;;;;;6124577;23;20030;-74
2022/08/23 02:24:05;;;;;;;16.85;10.65;;;;;;;;;;6124764;23;20025;-74
2022/08/23 02:26:35;;;;;;;20.08;13.35;;;;;;;;;;6124706;23;20032;-73
2022/08/23 02:29:05;;;;;;;17.23;9.25;;;;;;;;;;6124550;23;20032;-74
2022/08/23 02:31:34;;;;;;;15.52;9.45;;;;;;;;;;6124481;23;20479;-74
2022/08/23 02:34:01;;;;;;;18.40;10.30;;;;;;;;;;6100324;23;20022;-74
2022/08/23 02:36:31;;;;;;;15.35;8.68;;;;;;;;;;6124514;23;20437;-74
2022/08/23 02:38:59;;;;;;;17.48;10.27;;;;;;;;;;6124606;23;20032;-73
2022/08/23 02:41:27;;;;;;;15.50;8.52;;;;;;;;;;6124391;23;20441;-74
2022/08/23 02:43:54;;;;;;;14.32;9.10;;;;;;;;;;6124705;23;20018;-73
2022/08/23 02:46:22;;;;;;;14.93;9.63;;;;;;;;;;6124831;23;20032;-73
2022/08/23 02:48:51;;;;;;;18.33;9.65;;;;;;;;;;6124419;23;20024;-75
2022/08/23 02:51:20;;;;;;;15.10;8.93;;;;;;;;;;6124370;23;20029;-74
2022/08/23 02:53:47;;;;;;;15.43;9.60;;;;;;;;;;6124315;23;20112;-73
2022/08/23 02:56:17;;;;;;;15.98;9.23;;;;;;;;;;6124483;23;20053;-73
2022/08/23 02:58:50;;;;;;;17.30;10.88;;;;;;;;;;6148980;23;20068;-73
2022/08/23 03:01:24;;;;;;;16.48;9.75;;;;;;;;;;6124382;23;20018;-73
2022/08/23 03:03:54;;;;;;;15.50;9.27;;;;;;;;;;6124253;23;20021;-73
2022/08/23 03:06:22;;;;;;;14.50;9.52;;;;;;;;;;6124164;23;20023;-73
2022/08/23 03:08:53;;;;;;;15.50;9.88;;;;;;;;;;6124167;23;20322;-73
2022/08/23 03:11:22;;;;;;;14.82;10.13;;;;;;;;;;6124238;23;20025;-74
2022/08/23 03:13:52;;;;;;;18.98;11.90;;;;;;;;;;6124397;23;20104;-74
2022/08/23 03:16:20;;;;;;;17.70;11.48;;;;;;;;;;6124213;23;20025;-73
2022/08/23 03:18:48;;;;;;;21.40;12.18;;;;;;;;;;6124273;23;20026;-73
2022/08/23 03:21:16;;;;;;;20.33;10.18;;;;;;;;;;6123995;23;20022;-73
2022/08/23 03:23:44;;;;;;;15.65;10.80;;;;;;;;;;6124157;23;20018;-73
2022/08/23 03:26:13;;;;;;;15.05;10.43;;;;;;;;;;6124112;23;20106;-73
2022/08/23 03:28:42;;;;;;;15.65;10.30;;;;;;;;;;6124095;23;20022;-73
2022/08/23 03:31:11;;;;;;;15.90;9.95;;;;;;;;;;6123940;23;20029;-73
2022/08/23 03:33:47;;;;;;;18.80;10.15;;;;;;;;;;6123836;23;20525;-74
2022/08/23 03:36:17;;;;;;;23.40;13.05;;;;;;;;;;6123889;23;20024;-73
2022/08/23 03:38:45;;;;;;;17.85;10.95;;;;;;;;;;6123829;23;20105;-74
2022/08/23 03:41:12;;;;;;;20.38;10.80;;;;;;;;;;6123887;23;20029;-73
2022/08/23 03:43:40;;;;;;;22.25;11.50;;;;;;;;;;6124080;23;20028;-73
2022/08/23 03:46:08;;;;;;;20.33;10.25;;;;;;;;;;6123952;23;20045;-73
2022/08/23 03:48:39;;;;;;;15.10;9.93;;;;;;;;;;6123987;23;20052;-73
2022/08/23 03:51:06;;;;;;;13.18;11.13;;;;;;;;;;6123977;23;20026;-73
2022/08/23 03:53:34;;;;;;;17.88;10.27;;;;;;;;;;6123966;23;20025;-74
2022/08/23 03:56:03;;;;;;;15.38;11.45;;;;;;;;;;6127581;23;20014;-72
2022/08/23 03:58:31;;;;;;;15.98;9.27;;;;;;;;;;6126125;23;20026;-75
2022/08/23 04:00:58;;;;;;;18.55;10.18;;;;;;;;;;6125993;23;20413;-78
2022/08/23 04:03:26;;;;;;;16.42;11.77;;;;;;;;;;6125842;23;20080;-75
2022/08/23 04:06:02;;;;;;;16.65;10.00;;;;;;;;;;6125869;23;20014;-74
2022/08/23 04:08:31;;;;;;;15.88;9.93;;;;;;;;;;6125903;23;20018;-75
2022/08/23 04:11:03;;;;;;;21.33;12.48;;;;;;;;;;6125934;23;20021;-75
2022/08/23 04:13:31;;;;;;;17.25;11.38;;;;;;;;;;6125553;23;20032;-75
2022/08/23 04:16:03;;;;;;;17.58;11.60;;;;;;;;;;6125786;23;20017;-74
2022/08/23 04:18:32;;;;;;;19.05;11.27;;;;;;;;;;6125846;23;20026;-74
2022/08/23 04:21:02;;;;;;;17.50;10.55;;;;;;;;;;6125811;23;20018;-75
2022/08/23 04:23:30;;;;;;;18.95;10.70;;;;;;;;;;6125410;23;20029;-77
2022/08/23 04:25:57;;;;;;;16.33;10.15;;;;;;;;;;6125655;23;20049;-76
2022/08/23 04:28:29;;;;;;;16.35;11.77;;;;;;;;;;6125527;23;20018;-76
2022/08/23 04:30:59;;;;;;;22.08;13.98;;;;;;;;;;6125800;23;20030;-76
2022/08/23 04:33:29;;;;;;;19.95;12.18;;;;;;;;;;6125674;23;20108;-74
2022/08/23 04:36:01;;;;;;;17.20;11.80;;;;;;;;;;6125684;23;20469;-75
2022/08/23 04:38:29;;;;;;;15.43;11.23;;;;;;;;;;6125812;23;20385;-74
2022/08/23 04:43:55;;;;;;;20.20;11.30;;;;;;;;;;6112187;23;20445;-76
2022/08/23 04:46:25;;;;;;;19.95;12.10;;;;;;;;;;6125577;23;20054;-74
2022/08/23 04:48:54;;;;;;;25.80;12.93;;;;;;;;;;6125413;23;20022;-74
2022/08/23 04:51:22;;;;;;;23.70;12.13;;;;;;;;;;6125565;23;20026;-75
2022/08/23 04:53:50;;;;;;;18.75;10.75;;;;;;;;;;6125151;23;20057;-76
2022/08/23 04:56:56;;;;;;;;;;;;;;;;;;6066882;23;20041;-76
2022/08/23 04:59:24;;;;;;;14.90;10.57;;;;;;;;;;6042244;23;19940;-75
2022/08/23 05:01:52;;;;;;;16.92;11.57;;;;;;;;;;6095168;23;20045;-75
2022/08/23 05:04:19;;;;;;;18.38;10.88;;;;;;;;;;6125040;23;20400;-75
2022/08/23 05:06:48;;;;;;;15.32;10.32;;;;;;;;;;6125372;23;20022;-75
2022/08/23 05:09:16;;;;;;;18.58;9.55;;;;;;;;;;6126930;23;20046;-75
2022/08/23 05:11:48;;;;;;;12.75;9.05;;;;;;;;;;6125419;23;20018;-77
2022/08/23 05:14:17;;;;;;;14.07;8.88;;;;;;;;;;6125365;23;20109;-73
2022/08/23 05:16:45;;;;;;;15.05;8.32;;;;;;;;;;6125435;23;20017;-75
2022/08/23 05:19:14;;;;;;;16.08;8.80;;;;;;;;;;6149480;23;20033;-73
2022/08/23 05:21:44;;;;;;;15.82;9.00;;;;;;;;;;6125119;23;20022;-73
2022/08/23 05:24:12;;;;;;;13.77;8.73;;;;;;;;;;6125085;23;20018;-73
2022/08/23 05:26:42;;;;;;;14.10;7.22;;;;;;;;;;6125399;23;20049;-74
2022/08/23 05:29:10;;;;;;;13.52;6.97;;;;;;;;;;6125026;23;20018;-74
2022/08/23 05:31:45;;;;;;;11.98;6.35;;;;;;;;;;6124851;23;20022;-76
2022/08/23 05:34:16;;;;;;;14.95;6.57;;;;;;;;;;6124866;23;20105;-75
2022/08/23 05:36:54;;;;;;;25.30;14.93;;;;;;;;;;6125177;23;20022;-73
2022/08/23 05:39:34;;;;;;;26.90;16.13;;;;;;;;;;6125264;23;20022;-76
2022/08/23 05:42:08;;;;;;;11.82;6.65;;;;;;;;;;6125011;23;20515;-76
2022/08/23 05:44:36;;;;;;;12.38;7.03;;;;;;;;;;6125159;23;20022;-75
2022/08/23 05:47:07;;;;;;;15.90;6.88;;;;;;;;;;6125319;23;20026;-74
2022/08/23 05:49:45;;;;;;;13.98;8.40;;;;;;;;;;6125273;23;20014;-74
2022/08/23 05:52:13;;;;;;;12.77;5.57;;;;;;;;;;6125222;23;20069;-75
2022/08/23 05:54:43;;;;;;;9.60;5.55;;;;;;;;;;6124891;23;20029;-75
2022/08/23 05:57:30;;;;;;;10.70;6.50;;;;;;;;;;6124861;23;20018;-76
2022/08/23 05:59:58;;;;;;;12.63;6.18;;;;;;;;;;6124984;23;20028;-75
2022/08/23 06:02:26;;;;;;;11.38;5.63;;;;;;;;;;6100726;23;20018;-74
2022/08/23 06:04:53;;;;;;;13.20;5.60;;;;;;;;;;6100933;23;20026;-75
2022/08/23 06:07:24;;;;;;;12.38;5.43;;;;;;;;;;6124739;23;20018;-75
2022/08/23 06:09:53;;;;;;;11.15;5.90;;;;;;;;;;6100708;23;20018;-74
2022/08/23 06:12:21;;;;;;;11.20;5.75;;;;;;;;;;6124940;23;20053;-75
2022/08/23 06:14:49;;;;;;;11.27;5.55;;;;;;;;;;6124570;23;20046;-76
2022/08/23 06:17:19;;;;;;;10.95;5.28;;;;;;;;;;6124461;23;20022;-75
2022/08/23 06:19:47;;;;;;;11.88;5.93;;;;;;;;;;6124798;23;20042;-74
2022/08/23 06:22:30;;;;;;;12.30;5.95;;;;;;;;;;6126258;23;20014;-75
2022/08/23 06:24:57;;;;;;;12.85;5.68;;;;;;;;;;6124811;23;20346;-73
2022/08/23 06:27:47;;;;;;;12.70;6.00;;;;;;;;;;6126045;23;20104;-74
2022/08/23 06:30:15;;;;;;;11.35;5.88;;;;;;;;;;6124756;23;20014;-75
2022/08/23 06:32:43;;;;;;;12.40;5.68;;;;;;;;;;6126409;23;20077;-76
2022/08/23 06:35:29;;;;;;;16.08;5.85;;;;;;;;;;6126304;23;20080;-73
2022/08/23 06:38:33;;;;;;;9.65;5.35;;;;;;;;;;6102875;23;20381;-74
2022/08/23 06:41:12;;;;;;;11.23;4.55;;;;;;;;;;6124518;23;20029;-74
2022/08/23 06:44:00;;;;;;;13.60;4.97;;;;;;;;;;6115367;23;20022;-74
2022/08/23 06:46:50;;;;;;;11.68;5.35;;;;;;;;;;6117818;23;20068;-75
2022/08/23 06:49:18;;;;;;;9.90;5.22;;;;;;;;;;6124581;23;20021;-74
2022/08/23 06:51:49;;;;;;;12.13;5.20;;;;;;;;;;6124499;23;20057;-74
2022/08/23 06:54:27;;;;;;;13.43;5.10;;;;;;;;;;6124486;23;20348;-74
2022/08/23 06:57:14;;;;;;;10.00;5.55;;;;;;;;;;6126035;23;20029;-73
2022/08/23 07:00:05;;;;;;;12.80;5.35;;;;;;;;;;6125987;23;20037;-75
2022/08/23 07:02:51;;;;;;;10.60;5.20;;;;;;;;;;6126052;23;20045;-74
2022/08/23 07:05:41;;;;;;;11.18;5.82;;;;;;;;;;6097738;23;20025;-75
2022/08/23 07:08:19;;;;;;;11.63;5.18;;;;;;;;;;6125864;23;20037;-75
2022/08/23 07:10:48;;;;;;;9.18;5.60;;;;;;;;;;6124309;23;20364;-74
2022/08/23 07:13:15;;;;;;;17.70;6.03;;;;;;;;;;6124209;23;20024;-75
2022/08/23 07:15:45;;;;;;;10.95;5.38;;;;;;;;;;6124268;23;20025;-75
2022/08/23 07:18:19;;;;;;;13.40;6.22;;;;;;;;;;6124326;23;20120;-75
2022/08/23 07:20:48;;;;;;;10.07;5.10;;;;;;;;;;6124198;23;20081;-75
2022/08/23 07:23:16;;;;;;;12.85;5.00;;;;;;;;;;6124051;23;20022;-74
2022/08/23 07:25:44;;;;;;;10.63;5.38;;;;;;;;;;6124310;23;20117;-76
2022/08/23 07:28:15;;;;;;;9.23;5.25;;;;;;;;;;6123840;23;20025;-75
2022/08/23 07:30:43;;;;;;;11.85;5.35;;;;;;;;;;6124208;23;20022;-75
2022/08/23 07:33:13;;;;;;;12.00;5.15;;;;;;;;;;6124084;23;20076;-75
2022/08/23 07:36:00;;;;;;;13.65;5.22;;;;;;;;;;6125656;23;20357;-75
2022/08/23 07:38:28;;;;;;;11.50;5.13;;;;;;;;;;6124203;23;20474;-75
2022/08/23 07:40:58;;;;;;;10.73;4.75;;;;;;;;;;6124227;23;20113;-76
2022/08/23 07:43:26;;;;;;;14.60;5.35;;;;;;;;;;6125791;23;20020;-74
2022/08/23 07:45:54;;;;;;;10.85;5.32;;;;;;;;;;6124080;23;20022;-76
2022/08/23 07:48:22;;;;;;;13.52;4.80;;;;;;;;;;6124121;23;20021;-75
2022/08/23 07:51:14;;;;;;;12.27;4.68;;;;;;;;;;6123991;23;20460;-74
2022/08/23 07:53:42;;;;;;;12.90;5.18;;;;;;;;;;6123983;23;20396;-74
2022/08/23 07:56:15;;;;;;;11.52;4.60;;;;;;;;;;6124168;23;20524;-76
2022/08/23 07:59:15;;;;;;;13.70;4.60;;;;;;;;;;6112687;23;20037;-76
2022/08/23 08:02:02;;;;;;;8.70;4.43;;;;;;;;;;6125571;23;20349;-76
2022/08/23 08:04:30;;;;;;;13.50;6.10;;;;;;;;;;6124073;23;20030;-74
2022/08/23 08:06:59;;;;;;;18.02;8.43;;;;;;;;;;6124004;23;20026;-76
2022/08/23 08:09:49;;;;;;;15.23;5.82;;;;;;;;;;6124021;23;20360;-75
2022/08/23 08:12:17;;;;;;;19.20;9.43;;;;;;;;;;6148544;23;20018;-75
2022/08/23 08:14:47;;;;;;;12.60;5.63;;;;;;;;;;6123897;23;20497;-75
2022/08/23 08:17:17;;;;;;;13.82;5.30;;;;;;;;;;6123761;23;20029;-75
2022/08/23 08:20:05;;;;;;;12.98;5.22;;;;;;;;;;6125369;23;20077;-74
2022/08/23 08:22:51;;;;;;;11.30;4.80;;;;;;;;;;6125428;23;20385;-73
2022/08/23 08:26:19;;;;;;;10.43;4.85;;;;;;;;;;6102352;23;20026;-75
2022/08/23 08:28:55;;;;;;;15.00;5.50;;;;;;;;;;6148419;23;20014;-73
2022/08/23 08:31:24;;;;;;;13.52;4.32;;;;;;;;;;6123859;23;20104;-75
2022/08/23 08:33:54;;;;;;;16.77;4.97;;;;;;;;;;6123837;23;20076;-74
2022/08/23 08:36:34;;;;;;;8.60;3.90;;;;;;;;;;6123837;23;20471;-74
2022/08/23 08:39:05;;;;;;;10.77;4.78;;;;;;;;;;6123903;23;20025;-75
2022/08/23 08:41:39;;;;;;;13.02;4.47;;;;;;;;;;6125568;23;20453;-75
2022/08/23 08:44:06;;;;;;;;;;;;;;;;;;6126173;23;20334;-74
2022/08/23 08:46:49;;;;;;;13.38;5.55;;;;;;;;;;6125705;23;19923;-75
2022/08/23 08:49:23;;;;;;;13.65;4.65;;;;;;;;;;6125636;23;20057;-75
2022/08/23 08:51:57;;;;;;;10.57;4.63;;;;;;;;;;6125636;23;20072;-74
2022/08/23 08:54:27;;;;;;;12.23;4.47;;;;;;;;;;6125526;23;20076;-74
2022/08/23 08:56:56;;;;;;;10.68;4.25;;;;;;;;;;6125643;23;20018;-74
2022/08/23 08:59:29;;;;;;;12.77;4.35;;;;;;;;;;6125574;23;20325;-76
2022/08/23 09:01:57;;;;;;;11.00;4.45;;;;;;;;;;6125628;23;20078;-73
2022/08/23 09:04:36;;;;;;;9.77;3.70;;;;;;;;;;6125552;23;20379;-74
2022/08/23 09:07:28;;;;;;;9.95;3.88;;;;;;;;;;6125572;23;20030;-74
2022/08/23 09:10:05;;;;;;;14.57;4.47;;;;;;;;;;6150142;23;20022;-74
2022/08/23 09:13:05;;;;;;;9.88;4.05;;;;;;;;;;6101747;23;20022;-74
2022/08/23 09:15:36;;;;;;;10.15;4.32;;;;;;;;;;6073918;23;20035;-76
2022/08/23 09:18:09;;;;;;;9.52;4.95;;;;;;;;;;6126957;23;20089;-74
2022/08/23 09:20:38;;;;;;;8.90;4.68;;;;;;;;;;6125402;23;20022;-73
2022/08/23 09:23:08;;;;;;;10.25;4.75;;;;;;;;;;6125239;23;20029;-75
2022/08/23 09:25:38;;;;;;;9.38;3.80;;;;;;;;;;6101368;23;20077;-74
2022/08/23 09:28:17;;;;;;;8.90;4.95;;;;;;;;;;6125258;23;20453;-74
2022/08/23 09:30:55;;;;;;;7.70;4.70;;;;;;;;;;6125270;23;20445;-75
2022/08/23 09:33:26;;;;;;;9.57;4.65;;;;;;;;;;6125247;23;20045;-76
2022/08/23 09:36:14;;;;;;;14.15;5.00;;;;;;;;;;6125144;23;20022;-74
2022/08/23 09:39:09;;;;;;;9.80;4.32;;;;;;;;;;6125193;23;20021;-74
2022/08/23 09:41:40;;;;;;;12.50;4.43;;;;;;;;;;6103382;23;20046;-74
2022/08/23 09:44:12;;;;;;;11.55;5.00;;;;;;;;;;6125043;23;20073;-73
2022/08/23 09:46:43;;;;;;;12.55;5.03;;;;;;;;;;6124996;23;20089;-74
2022/08/23 09:49:28;;;;;;;9.60;4.82;;;;;;;;;;6125017;23;20018;-73
2022/08/23 09:52:19;;;;;;;13.32;4.35;;;;;;;;;;6149249;23;20470;-74
2022/08/23 09:54:59;;;;;;;10.38;4.72;;;;;;;;;;6125007;23;20025;-74
2022/08/23 09:57:28;;;;;;;13.10;5.07;;;;;;;;;;6125013;23;20018;-74
2022/08/23 10:00:00;;;;;;;10.02;4.65;;;;;;;;;;6126913;23;20026;-75
2022/08/23 10:02:38;;;;;;;14.07;4.70;;;;;;;;;;6126907;23;20084;-75
2022/08/23 10:05:15;;;;;;;10.85;5.13;;;;;;;;;;6124899;23;20109;-75
2022/08/23 10:07:45;;;;;;;10.60;4.80;;;;;;;;;;6124920;23;20026;-74
2022/08/23 10:10:29;;;;;;;9.77;4.50;;;;;;;;;;6124779;23;20021;-75
2022/08/23 10:13:01;;;;;;;19.90;7.15;;;;;;;;;;6124804;23;20577;-76
2022/08/23 10:15:39;;;;;;;17.88;7.03;;;;;;;;;;6124730;23;20026;-76
2022/08/23 10:18:07;;;;;;;9.90;4.93;;;;;;;;;;6124900;23;20100;-76
2022/08/23 10:20:47;;;;;;;11.15;4.53;;;;;;;;;;6124795;23;20022;-74
2022/08/23 10:23:14;;;;;;;10.18;5.28;;;;;;;;;;6124628;23;20026;-74
2022/08/23 10:25:48;;;;;;;15.55;5.15;;;;;;;;;;6124735;23;20049;-75
2022/08/23 10:31:16;;;;;;;15.93;6.90;;;;;;;;;;6149188;23;20064;-75
2022/08/23 10:33:48;;;;;;;12.40;5.05;;;;;;;;;;6100975;23;20456;-76
2022/08/23 10:36:28;;;;;;;13.30;4.72;;;;;;;;;;6124534;23;20033;-75
2022/08/23 10:38:58;;;;;;;10.90;4.57;;;;;;;;;;6124669;23;20022;-74
2022/08/23 10:41:26;;;;;;;12.45;4.95;;;;;;;;;;6149151;23;20049;-74
2022/08/23 10:44:00;;;;;;;9.77;4.75;;;;;;;;;;6124603;23;20071;-74
2022/08/23 10:46:27;;;;;;;;;;;;;;;;;;6124429;23;20018;-74
2022/08/23 10:48:57;;;;;;;9.02;4.50;;;;;;;;;;6148787;23;19988;-74
2022/08/23 10:51:29;;;;;;;10.43;4.60;;;;;;;;;;6124135;23;20017;-74
2022/08/23 10:54:06;;;;;;;9.48;4.20;;;;;;;;;;6123914;23;20024;-74
2022/08/23 10:56:35;;;;;;;8.80;4.45;;;;;;;;;;6123930;23;20109;-76
2022/08/23 10:59:13;;;;;;;10.02;4.97;;;;;;;;;;6124241;23;21001;-75
2022/08/23 11:01:50;;;;;;;12.00;4.85;;;;;;;;;;6124123;23;20045;-75
2022/08/23 11:04:30;;;;;;;14.60;6.50;;;;;;;;;;6123933;23;20116;-75
2022/08/23 11:07:17;;;;;;;23.02;10.75;;;;;;;;;;6124031;23;20025;-76
2022/08/23 11:09:57;;;;;;;16.10;7.25;;;;;;;;;;6124060;23;20022;-76
2022/08/23 11:12:28;;;;;;;12.70;5.47;;;;;;;;;;6124294;23;20073;-75
2022/08/23 11:14:56;;;;;;;12.00;5.32;;;;;;;;;;6124034;23;20389;-75
2022/08/23 11:17:28;;;;;;;8.75;4.07;;;;;;;;;;6124240;23;20660;-75
2022/08/23 11:20:00;;;;;;;8.18;4.47;;;;;;;;;;6148581;23;20039;-75
2022/08/23 11:22:30;;;;;;;12.03;5.27;;;;;;;;;;6123704;23;20030;-75
2022/08/23 11:25:02;;;;;;;9.82;4.40;;;;;;;;;;6123689;23;20292;-75
2022/08/23 11:27:37;;;;;;;9.80;4.65;;;;;;;;;;6123862;23;20022;-75
2022/08/23 11:30:24;;;;;;;8.85;4.95;;;;;;;;;;6148789;23;20030;-76
2022/08/23 11:33:14;;;;;;;9.75;4.70;;;;;;;;;;6123990;23;20025;-76
2022/08/23 11:35:45;;;;;;;7.28;4.25;;;;;;;;;;6148350;23;20025;-76
2022/08/23 11:38:14;;;;;;;10.00;6.50;;;;;;;;;;6124030;23;20353;-76
2022/08/23 11:40:52;;;;;;;9.27;4.90;;;;;;;;;;6148657;23;20143;-74
2022/08/23 11:43:27;;;;;;;9.05;4.20;;;;;;;;;;6124005;23;20326;-73
2022/08/23 11:46:12;;;;;;;10.20;4.72;;;;;;;;;;6124070;23;20076;-75
2022/08/23 11:48:42;;;;;;;7.25;3.92;;;;;;;;;;6123965;23;20025;-74
2022/08/23 11:51:28;;;;;;;7.38;4.30;;;;;;;;;;6124062;23;20029;-74
2022/08/23 11:53:59;;;;;;;5.03;3.40;;;;;;;;;;6125457;23;20046;-74
2022/08/23 11:56:27;;;;;;;5.97;3.67;;;;;;;;;;6125513;23;20373;-74
2022/08/23 11:59:04;;;;;;;6.07;3.78;;;;;;;;;;6125422;23;20341;-76
2022/08/23 12:01:38;;;;;;;4.55;3.78;;;;;;;;;;6125446;23;20021;-74
2022/08/23 12:04:23;;;;;;;8.60;3.78;;;;;;;;;;6125419;23;20018;-75
2022/08/23 12:06:54;;;;;;;5.53;3.55;;;;;;;;;;6125385;23;20014;-74
2022/08/23 12:09:22;;;;;;;7.00;4.15;;;;;;;;;;6125313;23;20022;-74
2022/08/23 12:11:56;;;;;;;6.82;3.85;;;;;;;;;;6125308;23;20029;-74
2022/08/23 12:14:35;;;;;;;8.05;4.10;;;;;;;;;;6124050;23;20077;-75
2022/08/23 12:17:05;;;;;;;6.25;4.15;;;;;;;;;;6125970;23;20038;-74
2022/08/23 12:19:38;;;;;;;6.90;4.45;;;;;;;;;;6125743;23;20014;-73
2022/08/23 12:22:28;;;;;;;12.52;7.00;;;;;;;;;;6127274;23;20021;-75
2022/08/23 12:25:03;;;;;;;6.97;4.30;;;;;;;;;;6127196;23;20017;-74
2022/08/23 12:27:33;;;;;;;10.05;5.25;;;;;;;;;;6127254;23;20014;-75
2022/08/23 12:30:05;;;;;;;7.10;4.13;;;;;;;;;;6126314;23;20437;-75
2022/08/23 12:32:41;;;;;;;8.23;4.45;;;;;;;;;;6127123;23;20497;-75
2022/08/23 12:35:26;;;;;;;10.63;4.82;;;;;;;;;;6126852;23;20068;-74
2022/08/23 12:38:04;;;;;;;8.93;4.30;;;;;;;;;;6126972;23;20022;-74
2022/08/23 12:40:31;;;;;;;9.52;4.18;;;;;;;;;;6126931;23;20029;-75
2022/08/23 12:43:18;;;;;;;9.70;4.63;;;;;;;;;;6126741;23;20046;-74
2022/08/23 12:45:53;;;;;;;9.52;4.90;;;;;;;;;;6126799;23;20077;-73
2022/08/23 12:48:23;;;;;;;9.73;4.72;;;;;;;;;;6127070;23;20018;-73
2022/08/23 12:50:53;;;;;;;9.85;4.82;;;;;;;;;;6126837;23;20018;-74
2022/08/23 12:53:26;;;;;;;7.78;4.25;;;;;;;;;;6126917;23;20102;-73
2022/08/23 12:56:00;;;;;;;8.90;4.10;;;;;;;;;;6126792;23;20018;-74
2022/08/23 12:58:29;;;;;;;4.90;4.43;;;;;;;;;;6126746;23;20381;-76
2022/08/23 13:01:02;;;;;;;7.80;4.00;;;;;;;;;;6126803;23;20022;-75
2022/08/23 13:03:30;;;;;;;10.05;6.50;;;;;;;;;;6126688;23;20097;-73
2022/08/23 13:06:00;;;;;;;8.70;4.30;;;;;;;;;;6126721;23;20022;-74
2022/08/23 13:08:49;;;;;;;10.93;4.68;;;;;;;;;;6126564;23;20014;-75
2022/08/23 13:11:18;;;;;;;9.00;4.30;;;;;;;;;;6126541;23;20521;-74
2022/08/23 13:13:46;;;;;;;8.70;4.38;;;;;;;;;;6126525;23;20098;-75
2022/08/23 13:16:22;;;;;;;5.93;3.88;;;;;;;;;;6126456;23;20022;-74
2022/08/23 13:18:54;;;;;;;6.90;4.30;;;;;;;;;;6126491;23;20113;-76
2022/08/23 13:21:22;;;;;;;7.78;4.50;;;;;;;;;;6125889;23;20037;-75
2022/08/23 13:23:50;;;;;;;10.88;4.85;;;;;;;;;;6126449;23;20032;-74
2022/08/23 13:26:35;;;;;;;6.43;4.30;;;;;;;;;;6125812;23;20014;-74
2022/08/23 13:29:03;;;;;;;7.40;3.90;;;;;;;;;;6126538;23;20029;-73
2022/08/23 13:31:49;;;;;;;6.32;4.32;;;;;;;;;;6126615;23;20010;-73
2022/08/23 13:34:37;;;;;;;10.15;4.68;;;;;;;;;;6126477;23;20018;-74
2022/08/23 13:37:16;;;;;;;8.57;4.32;;;;;;;;;;6126140;23;20026;-74
2022/08/23 13:39:45;;;;;;;14.55;4.82;;;;;;;;;;6126330;23;20018;-75
2022/08/23 13:42:12;;;;;;;13.18;4.90;;;;;;;;;;6125968;23;20018;-73
2022/08/23 13:44:41;;;;;;;15.55;5.32;;;;;;;;;;6126007;23;20018;-74
2022/08/23 13:47:19;;;;;;;12.25;4.82;;;;;;;;;;6126381;23;20018;-73
2022/08/23 13:49:47;;;;;;;11.98;5.00;;;;;;;;;;6126062;23;20018;-75
2022/08/23 13:52:15;;;;;;;14.23;5.68;;;;;;;;;;6126197;23;20024;-76
2022/08/23 13:55:02;;;;;;;12.13;5.72;;;;;;;;;;6126333;23;20101;-78
2022/08/23 13:57:35;;;;;;;12.57;7.15;;;;;;;;;;6126024;23;20021;-79
2022/08/23 14:00:07;;;;;;;9.93;6.05;;;;;;;;;;6124792;23;20042;-78
2022/08/23 14:02:36;;;;;;;9.30;5.18;;;;;;;;;;6125652;23;20401;-78
2022/08/23 14:05:04;;;;;;;8.68;4.80;;;;;;;;;;6126037;23;20022;-77
2022/08/23 14:07:31;;;;;;;5.45;4.53;;;;;;;;;;6126015;23;20018;-79
2022/08/23 14:09:59;;;;;;;7.25;4.82;;;;;;;;;;6126389;23;20072;-79
2022/08/23 14:12:32;;;;;;;10.10;4.82;;;;;;;;;;6126016;23;20018;-77
2022/08/23 14:15:01;;;;;;;8.75;4.80;;;;;;;;;;6125779;23;20453;-77
2022/08/23 14:17:29;;;;;;;8.80;4.47;;;;;;;;;;6126963;23;20464;-77
2022/08/23 14:19:57;;;;;;;8.00;4.15;;;;;;;;;;6125151;23;20022;-77
2022/08/23 14:22:45;;;;;;;5.85;4.25;;;;;;;;;;6125587;23;20088;-76
2022/08/23 14:25:13;;;;;;;10.13;5.70;;;;;;;;;;6124328;23;20026;-75
2022/08/23 14:27:41;;;;;;;9.45;4.00;;;;;;;;;;6125865;23;20018;-76
2022/08/23 14:30:10;;;;;;;6.50;4.53;;;;;;;;;;6125950;23;20216;-77
2022/08/23 14:32:39;;;;;;;10.10;5.00;;;;;;;;;;6125935;23;20036;-72
2022/08/23 14:35:07;;;;;;;8.10;4.15;;;;;;;;;;6125251;23;20032;-72
2022/08/23 14:37:37;;;;;;;11.20;4.28;;;;;;;;;;6125843;23;20089;-72
2022/08/23 14:40:25;;;;;;;6.97;4.18;;;;;;;;;;6124351;23;20014;-72
2022/08/23 14:42:53;;;;;;;7.72;4.80;;;;;;;;;;6123644;23;20322;-72
2022/08/23 14:45:22;;;;;;;7.38;4.25;;;;;;;;;;6125795;23;20085;-72
2022/08/23 14:47:49;;;;;;;8.85;5.22;;;;;;;;;;6125946;23;20089;-72
2022/08/23 14:50:17;;;;;;;10.48;5.70;;;;;;;;;;6125662;23;20014;-72
2022/08/23 14:52:45;;;;;;;20.20;7.57;;;;;;;;;;6125635;23;20065;-71
2022/08/23 14:55:15;;;;;;;22.02;9.43;;;;;;;;;;6125804;23;20022;-70
2022/08/23 14:57:42;;;;;;;24.77;11.13;;;;;;;;;;6125865;23;20022;-73
2022/08/23 15:00:14;;;;;;;19.15;12.05;;;;;;;;;;6126294;23;20089;-72
2022/08/23 15:02:43;;;;;;;17.02;12.27;;;;;;;;;;6125792;23;20021;-71
2022/08/23 15:05:11;;;;;;;22.90;14.07;;;;;;;;;;6126004;23;20021;-70
2022/08/23 15:07:38;;;;;;;25.92;15.63;;;;;;;;;;6126249;23;20182;-70
2022/08/23 15:10:08;;;;;;;24.30;15.57;;;;;;;;;;6125794;23;20333;-70
2022/08/23 15:12:36;;;;;;;27.48;15.95;;;;;;;;;;6126134;23;20029;-71
2022/08/23 15:15:23;;;;;;;13.65;8.95;;;;;;;;;;6125707;23;20040;-71
2022/08/23 15:17:51;;;;;;;18.90;10.45;;;;;;;;;;6126229;23;20503;-70
2022/08/23 15:20:20;;;;;;;18.98;11.43;;;;;;;;;;6126123;23;20025;-71